createdAt,value
2019-01-25T00:00:05.385Z,100740.27
2019-01-25T00:04:12.125Z,100733.41
2019-01-25T00:08:17.238Z,100721.41
2019-01-25T00:12:41.461Z,100723.92
2019-01-25T00:16:46.594Z,100727.88
2019-01-25T00:21:03.733Z,100727.83
2019-01-25T00:30:04.737Z,100732.19
2019-01-25T00:38:45.423Z,100729.97
2019-01-25T00:42:50.580Z,100736.86
2019-01-25T00:46:56.084Z,100751.56
2019-01-25T00:51:01.167Z,100747.63
2019-01-25T00:55:25.886Z,100749.78
2019-01-25T00:59:42.849Z,100732.91
2019-01-25T01:03:48.037Z,100740.66
2019-01-25T01:07:53.222Z,100735.08
2019-01-25T01:11:58.320Z,100738.05
2019-01-25T01:29:46.693Z,100752.75
2019-01-25T01:34:10.836Z,100743.33
2019-01-25T01:38:27.595Z,100751.85
2019-01-25T01:42:32.696Z,100742.35
2019-01-25T01:46:37.841Z,100744.52
2019-01-25T01:50:42.986Z,100753.02
2019-01-25T01:54:48.050Z,100748.75
2019-01-25T01:58:53.133Z,100748.75
2019-01-25T02:02:58.289Z,100757.88
2019-01-25T02:07:03.393Z,100760.88
2019-01-25T02:11:08.866Z,100759.96
2019-01-25T02:19:52.814Z,100764.24
2019-01-25T02:23:57.897Z,100760.81
2019-01-25T02:28:02.987Z,100775.02
2019-01-25T02:32:08.088Z,100771.14
2019-01-25T02:36:13.233Z,100769.44
2019-01-25T02:40:20.756Z,100769.81
2019-01-25T02:44:26.165Z,100762.50
2019-01-25T02:48:31.352Z,100762.05
2019-01-25T02:52:39.271Z,100755.24
2019-01-25T02:56:44.277Z,100770.27
2019-01-25T03:00:49.460Z,100762.13
2019-01-25T03:04:54.615Z,100755.97
2019-01-25T03:08:59.729Z,100759.41
2019-01-25T03:13:04.861Z,100754.72
2019-01-25T03:17:09.914Z,100749.48
2019-01-25T03:21:15.141Z,100753.05
2019-01-25T03:25:22.219Z,100750.94
2019-01-25T03:29:27.296Z,100751.16
2019-01-25T03:33:32.486Z,100747.14
2019-01-25T03:37:37.551Z,100752.87
2019-01-25T03:41:42.613Z,100747.03
2019-01-25T03:45:47.662Z,100741.16
2019-01-25T03:49:52.846Z,100742.95
2019-01-25T03:53:57.986Z,100745.42
2019-01-25T04:02:41.670Z,100747.89
2019-01-25T04:06:46.855Z,100754.70
2019-01-25T04:11:04.221Z,100752.33
2019-01-25T04:20:02.185Z,100748.73
2019-01-25T04:24:07.339Z,100756.05
2019-01-25T04:28:12.406Z,100759.03
2019-01-25T04:32:17.497Z,100762.33
2019-01-25T04:36:22.625Z,100760.17
2019-01-25T04:40:27.750Z,100756.89
2019-01-25T04:44:32.870Z,100751.73
2019-01-25T04:48:49.676Z,100746.84
2019-01-25T04:53:15.576Z,100744.25
2019-01-25T04:57:20.651Z,100749.08
2019-01-25T05:01:25.719Z,100746.89
2019-01-25T05:05:30.856Z,100740.71
2019-01-25T05:09:40.157Z,100747.28
2019-01-25T05:13:45.394Z,100748.94
2019-01-25T05:17:54.032Z,100755.70
2019-01-25T05:21:59.117Z,100755.36
2019-01-25T05:26:04.201Z,100764.39
2019-01-25T05:30:11.079Z,100772.56
2019-01-25T05:34:16.283Z,100780.52
2019-01-25T05:38:21.647Z,100784.10
2019-01-25T05:42:45.774Z,100784.05
2019-01-25T05:47:10.322Z,100790.73
2019-01-25T05:51:15.467Z,100790.73
2019-01-25T05:55:21.518Z,100800.36
2019-01-25T05:59:26.686Z,100803.03
2019-01-25T06:03:31.809Z,100806.66
2019-01-25T06:07:36.905Z,100806.22
2019-01-25T06:11:42.025Z,100800.81
2019-01-25T06:15:47.141Z,100802.95
2019-01-25T06:19:52.314Z,100809.66
2019-01-25T06:23:57.429Z,100813.02
2019-01-25T06:28:16.286Z,100804.83
2019-01-25T06:32:21.398Z,100801.27
2019-01-25T06:36:26.487Z,100801.78
2019-01-25T06:40:31.700Z,100799.30
2019-01-25T06:44:36.838Z,100806.81
2019-01-25T06:48:41.939Z,100803.90
2019-01-25T06:52:47.075Z,100804.77
2019-01-25T06:56:52.140Z,100805.81
2019-01-25T07:01:16.188Z,100802.59
2019-01-25T07:05:21.311Z,100802.41
2019-01-25T07:09:26.402Z,100816.86
2019-01-25T07:13:31.463Z,100798.90
2019-01-25T07:17:55.561Z,100803.39
2019-01-25T07:22:00.745Z,100800.37
2019-01-25T07:26:05.920Z,100801.38
2019-01-25T07:30:30.569Z,100798.78
2019-01-25T07:34:35.641Z,100804.42
2019-01-25T07:38:40.909Z,100803.34
2019-01-25T07:42:45.925Z,100799.12
2019-01-25T07:47:10.483Z,100806.33
2019-01-25T07:51:27.455Z,100816.55
2019-01-25T07:55:32.550Z,100819.56
2019-01-25T07:59:56.653Z,100822.50
2019-01-25T08:04:02.038Z,100823.94
2019-01-25T08:12:23.444Z,100839.52
2019-01-25T08:16:28.599Z,100844.55
2019-01-25T08:25:09.820Z,100850.41
2019-01-25T08:29:14.954Z,100831.77
2019-01-25T08:33:20.150Z,100840.67
2019-01-25T08:37:44.377Z,100841.41
2019-01-25T08:41:49.559Z,100842.98
2019-01-25T08:50:34.101Z,100850.86
2019-01-25T08:54:58.316Z,100836.63
2019-01-25T08:59:03.392Z,100837.84
2019-01-25T09:03:08.634Z,100841.52
2019-01-25T09:07:13.720Z,100851.48
2019-01-25T09:11:18.803Z,100856.55
2019-01-25T09:15:26.121Z,100853.56
2019-01-25T09:19:31.228Z,100855.98
2019-01-25T09:23:36.301Z,100865.50
2019-01-25T09:27:41.401Z,100850.77
2019-01-25T09:31:46.468Z,100851.90
2019-01-25T09:35:51.542Z,100860.59
2019-01-25T09:39:56.661Z,100864.45
2019-01-25T09:44:01.751Z,100862.08
2019-01-25T09:48:06.897Z,100868.16
2019-01-25T09:52:12.329Z,100869.37
2019-01-25T09:56:17.434Z,100873.33
2019-01-25T10:00:28.550Z,100864.36
2019-01-25T10:04:33.650Z,100854.05
2019-01-25T10:08:38.773Z,100876.62
2019-01-25T10:12:43.827Z,100873.61
2019-01-25T10:16:48.960Z,100868.81
2019-01-25T10:20:54.001Z,100853.00
2019-01-25T10:24:59.077Z,100843.45
2019-01-25T10:29:04.264Z,100853.72
2019-01-25T10:33:09.328Z,100844.54
2019-01-25T10:37:14.418Z,100844.30
2019-01-25T10:41:19.472Z,100846.45
2019-01-25T10:45:32.760Z,100835.67
2019-01-25T10:49:37.920Z,100829.86
2019-01-25T10:53:43.079Z,100818.06
2019-01-25T10:57:48.241Z,100809.25
2019-01-25T11:01:53.930Z,100801.59
2019-01-25T11:05:59.030Z,100798.44
2019-01-25T11:10:04.523Z,100798.25
2019-01-25T11:14:09.663Z,100786.39
2019-01-25T11:18:14.795Z,100791.48
2019-01-25T11:22:19.853Z,100791.30
2019-01-25T11:26:24.873Z,100787.61
2019-01-25T11:30:29.929Z,100773.84
2019-01-25T11:34:35.975Z,100776.36
2019-01-25T11:38:41.049Z,100775.03
2019-01-25T11:42:46.099Z,100758.38
2019-01-25T11:46:52.759Z,100738.23
2019-01-25T11:50:57.821Z,100740.78
2019-01-25T11:55:02.915Z,100737.48
2019-01-25T11:59:07.997Z,100729.33
2019-01-25T12:07:30.261Z,100724.73
2019-01-25T12:15:52.499Z,100737.94
2019-01-25T12:19:57.665Z,100742.34
2019-01-25T12:24:21.838Z,100748.28
2019-01-25T12:28:27.033Z,100767.70
2019-01-25T12:32:32.086Z,100764.59
2019-01-25T12:36:37.172Z,100750.14
2019-01-25T12:40:45.469Z,100747.62
2019-01-25T12:44:50.530Z,100733.41
2019-01-25T12:48:55.652Z,100743.56
2019-01-25T12:53:01.922Z,100748.33
2019-01-25T12:57:26.046Z,100732.84
2019-01-25T13:01:34.974Z,100714.05
2019-01-25T13:14:52.022Z,100723.00
2019-01-25T13:18:57.164Z,100722.44
2019-01-25T13:23:02.277Z,100719.03
2019-01-25T13:31:44.446Z,100724.53
2019-01-25T13:36:00.969Z,100716.42
2019-01-25T13:40:17.473Z,100709.38
2019-01-25T13:44:22.548Z,100707.83
2019-01-25T13:48:39.371Z,100708.73
2019-01-25T13:52:44.424Z,100702.17
2019-01-25T13:56:49.591Z,100698.59
2019-01-25T14:01:14.003Z,100688.05
2019-01-25T14:05:30.448Z,100686.80
2019-01-25T14:14:11.436Z,100674.23
2019-01-25T14:18:16.591Z,100667.85
2019-01-25T14:22:33.403Z,100655.59
2019-01-25T14:26:38.523Z,100653.20
2019-01-25T14:30:44.081Z,100642.63
2019-01-25T14:35:27.390Z,100633.30
2019-01-25T14:39:51.854Z,100604.52
2019-01-25T14:43:56.910Z,100597.88
2019-01-25T14:48:02.191Z,100609.42
2019-01-25T14:52:08.914Z,100613.61
2019-01-25T14:56:14.056Z,100604.91
2019-01-25T15:00:19.554Z,100604.58
2019-01-25T15:04:24.743Z,100608.57
2019-01-25T15:08:41.380Z,100597.95
2019-01-25T15:13:26.147Z,100594.48
2019-01-25T15:17:31.305Z,100607.95
2019-01-25T15:21:36.606Z,100626.11
2019-01-25T15:25:41.799Z,100633.39
2019-01-25T15:29:58.564Z,100633.69
2019-01-25T15:34:03.663Z,100642.42
2019-01-25T15:38:08.823Z,100632.34
2019-01-25T15:42:33.033Z,100622.09
2019-01-25T15:46:38.210Z,100618.80
2019-01-25T15:59:16.304Z,100602.26
2019-01-25T16:03:33.346Z,100606.72
2019-01-25T16:07:38.528Z,100605.48
2019-01-25T16:16:00.321Z,100598.84
2019-01-25T16:20:45.552Z,100605.89
2019-01-25T16:24:50.683Z,100591.15
2019-01-25T16:28:55.667Z,100590.78
2019-01-25T16:33:00.795Z,100585.72
2019-01-25T16:37:24.926Z,100580.52
2019-01-25T16:41:30.062Z,100569.91
2019-01-25T16:45:40.413Z,100563.00
2019-01-25T16:54:02.137Z,100546.63
2019-01-25T16:58:46.705Z,100542.77
2019-01-25T17:02:53.827Z,100523.28
2019-01-25T17:11:15.315Z,100522.79
2019-01-25T17:15:39.498Z,100525.42
2019-01-25T17:19:44.632Z,100516.34
2019-01-25T17:23:51.362Z,100503.41
2019-01-25T17:27:56.455Z,100500.74
2019-01-25T17:32:01.545Z,100505.50
2019-01-25T17:36:25.658Z,100506.72
2019-01-25T17:40:52.422Z,100499.21
2019-01-25T17:44:57.745Z,100493.16
2019-01-25T17:53:19.651Z,100500.47
2019-01-25T17:57:24.800Z,100496.94
2019-01-25T18:01:29.901Z,100467.90
2019-01-25T18:05:35.041Z,100474.80
2019-01-25T18:09:40.167Z,100465.30
2019-01-25T18:13:45.199Z,100461.36
2019-01-25T18:18:09.510Z,100460.99
2019-01-25T18:22:14.636Z,100450.31
2019-01-25T18:26:23.978Z,100459.73
2019-01-25T18:30:50.356Z,100455.02
2019-01-25T18:39:11.998Z,100452.62
2019-01-25T18:43:17.657Z,100450.87
2019-01-25T18:47:41.488Z,100443.45
2019-01-25T18:51:46.594Z,100429.91
2019-01-25T18:55:51.638Z,100431.17
2019-01-25T18:59:56.875Z,100422.92
2019-01-25T19:04:07.205Z,100415.05
2019-01-25T19:08:12.343Z,100438.84
2019-01-25T19:12:38.263Z,100406.80
2019-01-25T19:16:50.412Z,100406.39
2019-01-25T19:25:31.857Z,100398.06
2019-01-25T19:29:37.058Z,100413.97
2019-01-25T19:33:42.136Z,100396.58
2019-01-25T19:37:47.331Z,100395.23
2019-01-25T19:42:11.476Z,100391.73
2019-01-25T19:46:28.452Z,100389.91
2019-01-25T19:50:45.757Z,100395.87
2019-01-25T19:54:50.923Z,100403.48
2019-01-25T19:58:56.033Z,100392.50
2019-01-25T20:03:01.220Z,100379.00
2019-01-25T20:07:06.351Z,100385.85
2019-01-25T20:11:30.512Z,100391.01
2019-01-25T20:15:54.745Z,100381.81
2019-01-25T20:20:18.864Z,100396.53
2019-01-25T20:24:23.998Z,100405.90
2019-01-25T20:32:45.823Z,100383.98
2019-01-25T20:36:50.994Z,100392.29
2019-01-25T20:41:02.937Z,100375.99
2019-01-25T20:45:10.654Z,100395.02
2019-01-25T20:53:32.772Z,100387.12
2019-01-25T20:57:56.898Z,100379.76
2019-01-25T21:02:21.236Z,100380.25
2019-01-25T21:06:26.282Z,100389.67
2019-01-25T21:10:31.360Z,100378.45
2019-01-25T21:14:36.519Z,100376.26
2019-01-25T21:18:41.660Z,100402.09
2019-01-25T21:22:46.745Z,100396.03
2019-01-25T21:27:10.979Z,100378.52
2019-01-25T21:31:15.976Z,100381.92
2019-01-25T21:35:21.121Z,100375.81
2019-01-25T21:39:26.127Z,100376.10
2019-01-25T21:43:31.641Z,100393.83
2019-01-25T21:51:53.800Z,100373.30
2019-01-25T22:04:47.460Z,100360.73
2019-01-25T22:08:52.596Z,100359.37
2019-01-25T22:12:57.733Z,100367.05
2019-01-25T22:17:02.771Z,100375.61
2019-01-25T22:21:07.936Z,100346.95
2019-01-25T22:25:32.174Z,100355.61
2019-01-25T22:29:56.325Z,100358.31
2019-01-25T22:34:01.403Z,100366.13
2019-01-25T22:38:06.458Z,100350.05
2019-01-25T22:42:11.573Z,100355.11
2019-01-25T22:46:16.668Z,100346.37
2019-01-25T22:50:41.149Z,100342.41
2019-01-25T22:59:22.168Z,100339.70
2019-01-25T23:04:05.430Z,100340.45
2019-01-25T23:08:10.578Z,100341.20
2019-01-25T23:12:15.704Z,100350.09
2019-01-25T23:16:20.755Z,100367.27
2019-01-25T23:20:25.851Z,100344.56
2019-01-25T23:24:30.909Z,100350.62
2019-01-25T23:28:35.989Z,100337.03
2019-01-25T23:32:41.063Z,100327.96
2019-01-25T23:36:46.117Z,100344.38
2019-01-25T23:40:51.306Z,100337.88
2019-01-25T23:44:56.377Z,100331.29
2019-01-25T23:49:01.489Z,100343.81
2019-01-25T23:53:06.528Z,100353.07
2019-01-25T23:57:11.672Z,100353.97
